createdAt,value
2018-02-08T00:01:52.987Z,44.50
2018-02-08T00:04:19.378Z,43.90
2018-02-08T00:06:45.950Z,45.50
2018-02-08T00:09:12.384Z,49.67
2018-02-08T00:11:38.775Z,42.80
2018-02-08T00:14:05.195Z,48.80
2018-02-08T00:16:31.623Z,51.17
2018-02-08T00:18:58.071Z,47.47
2018-02-08T00:21:24.657Z,47.90
2018-02-08T00:23:51.123Z,45.63
2018-02-08T00:26:18.246Z,50.93
2018-02-08T00:28:45.392Z,48.23
2018-02-08T00:31:11.786Z,45.87
2018-02-08T00:33:38.236Z,51.73
2018-02-08T00:36:04.620Z,45.13
2018-02-08T00:38:31.042Z,46.87
2018-02-08T00:40:57.547Z,49.10
2018-02-08T00:43:23.975Z,53.20
2018-02-08T00:45:50.418Z,49.50
2018-02-08T00:48:18.295Z,56.27
2018-02-08T00:50:44.697Z,51.03
2018-02-08T00:53:11.126Z,49.37
2018-02-08T00:55:37.558Z,47.60
2018-02-08T00:58:04.012Z,47.70
2018-02-08T01:00:31.365Z,43.83
2018-02-08T01:02:58.568Z,49.37
2018-02-08T01:05:25.024Z,40.63
2018-02-08T01:07:51.449Z,44.00
2018-02-08T01:10:17.873Z,49.10
2018-02-08T01:12:44.452Z,43.00
2018-02-08T01:15:10.925Z,43.43
2018-02-08T01:17:37.420Z,50.20
2018-02-08T01:20:03.860Z,49.20
2018-02-08T01:22:31.096Z,52.97
2018-02-08T01:24:57.502Z,51.50
2018-02-08T01:27:24.180Z,52.77
2018-02-08T01:29:50.589Z,50.57
2018-02-08T01:32:16.987Z,52.00
2018-02-08T01:34:43.597Z,49.37
2018-02-08T01:37:10.794Z,52.30
2018-02-08T01:39:37.341Z,50.97
2018-02-08T01:42:03.813Z,48.80
2018-02-08T01:44:31.050Z,44.00
2018-02-08T01:46:57.450Z,49.00
2018-02-08T01:49:30.976Z,45.40
2018-02-08T01:51:57.407Z,48.90
2018-02-08T01:54:23.841Z,46.23
2018-02-08T01:56:50.280Z,48.40
2018-02-08T01:59:17.447Z,47.30
2018-02-08T02:01:44.575Z,50.93
2018-02-08T02:04:11.054Z,49.70
2018-02-08T02:06:37.464Z,49.20
2018-02-08T02:09:03.960Z,46.63
2018-02-08T02:11:30.432Z,50.80
2018-02-08T02:13:57.585Z,50.17
2018-02-08T02:16:24.721Z,53.87
2018-02-08T02:18:51.247Z,53.00
2018-02-08T02:21:18.443Z,48.57
2018-02-08T02:23:44.847Z,44.47
2018-02-08T02:26:12.095Z,50.57
2018-02-08T02:28:38.486Z,44.27
2018-02-08T02:31:04.966Z,49.83
2018-02-08T02:33:32.143Z,52.57
2018-02-08T02:35:59.263Z,55.70
2018-02-08T02:38:26.399Z,51.90
2018-02-08T02:40:52.814Z,48.20
2018-02-08T02:43:19.213Z,55.00
2018-02-08T02:45:45.672Z,65.90
2018-02-08T02:48:12.117Z,51.43
2018-02-08T02:50:38.512Z,51.60
2018-02-08T02:53:04.907Z,46.93
2018-02-08T02:55:32.098Z,50.60
2018-02-08T02:57:58.592Z,59.27
2018-02-08T03:00:25.760Z,51.70
2018-02-08T03:02:52.222Z,52.27
2018-02-08T03:05:18.620Z,53.90
2018-02-08T03:07:45.020Z,50.17
2018-02-08T03:10:11.467Z,53.47
2018-02-08T03:12:37.948Z,50.90
2018-02-08T03:15:04.403Z,58.60
2018-02-08T03:17:30.938Z,47.20
2018-02-08T03:19:57.335Z,59.97
2018-02-08T03:22:23.828Z,53.83
2018-02-08T03:24:51.026Z,50.50
2018-02-08T03:27:17.468Z,52.40
2018-02-08T03:29:43.877Z,53.33
2018-02-08T03:32:10.379Z,55.27
2018-02-08T03:34:36.799Z,55.80
2018-02-08T03:37:03.240Z,54.93
2018-02-08T03:39:31.215Z,50.50
2018-02-08T03:41:57.599Z,60.73
2018-02-08T03:44:23.998Z,50.50
2018-02-08T03:46:51.436Z,53.73
2018-02-08T03:49:17.912Z,54.10
2018-02-08T03:51:44.354Z,49.60
2018-02-08T03:54:10.776Z,53.77
2018-02-08T03:56:37.178Z,56.70
2018-02-08T03:59:03.570Z,54.20
2018-02-08T04:01:30.035Z,62.63
2018-02-08T04:03:56.443Z,56.83
2018-02-08T04:06:22.951Z,56.07
2018-02-08T04:08:49.382Z,54.53
2018-02-08T04:11:15.791Z,51.77
2018-02-08T04:13:43.015Z,57.40
2018-02-08T04:16:09.523Z,52.70
2018-02-08T04:18:35.930Z,60.17
2018-02-08T04:21:03.136Z,59.80
2018-02-08T04:23:30.312Z,49.60
2018-02-08T04:25:56.678Z,52.93
2018-02-08T04:28:23.094Z,59.67
2018-02-08T04:30:49.667Z,51.20
2018-02-08T04:33:16.057Z,51.97
2018-02-08T04:35:43.267Z,58.23
2018-02-08T04:38:16.536Z,60.33
2018-02-08T04:40:55.267Z,58.13
2018-02-08T04:46:38.599Z,56.30
2018-02-08T04:49:05.025Z,54.50
2018-02-08T04:51:31.586Z,56.63
2018-02-08T04:53:59.490Z,69.50
2018-02-08T04:56:26.684Z,54.27
2018-02-08T04:58:53.043Z,57.43
2018-02-08T05:01:19.454Z,49.40
2018-02-08T05:03:45.889Z,62.17
2018-02-08T05:06:12.283Z,53.70
2018-02-08T05:08:38.729Z,56.50
2018-02-08T05:11:05.146Z,59.83
2018-02-08T05:13:31.539Z,60.53
2018-02-08T05:15:57.973Z,54.93
2018-02-08T05:18:24.436Z,52.80
2018-02-08T05:20:50.810Z,57.17
2018-02-08T05:23:17.192Z,55.70
2018-02-08T05:25:44.415Z,60.77
2018-02-08T05:28:10.828Z,65.00
2018-02-08T05:30:37.223Z,56.13
2018-02-08T05:33:03.659Z,55.23
2018-02-08T05:35:30.777Z,64.47
2018-02-08T05:37:57.169Z,48.63
2018-02-08T05:40:23.630Z,59.77
2018-02-08T05:42:50.034Z,62.37
2018-02-08T05:45:16.454Z,55.87
2018-02-08T05:47:42.968Z,59.13
2018-02-08T05:50:09.386Z,57.83
2018-02-08T05:52:37.031Z,54.00
2018-02-08T05:55:03.455Z,63.67
2018-02-08T05:57:30.101Z,53.90
2018-02-08T05:59:56.558Z,62.53
2018-02-08T06:02:23.067Z,55.30
2018-02-08T06:04:49.447Z,60.33
2018-02-08T06:07:15.904Z,56.10
2018-02-08T06:09:42.408Z,57.50
2018-02-08T06:12:08.852Z,60.80
2018-02-08T06:14:35.269Z,63.00
2018-02-08T06:17:01.772Z,56.13
2018-02-08T06:19:28.175Z,63.27
2018-02-08T06:21:54.625Z,60.37
2018-02-08T06:24:21.271Z,65.33
2018-02-08T06:26:47.729Z,59.27
2018-02-08T06:29:14.947Z,59.03
2018-02-08T06:31:42.898Z,60.40
2018-02-08T06:34:09.305Z,57.47
2018-02-08T06:36:35.704Z,62.23
2018-02-08T06:39:02.944Z,58.10
2018-02-08T06:41:29.341Z,56.77
2018-02-08T06:43:55.896Z,53.93
2018-02-08T06:46:22.357Z,65.50
2018-02-08T06:48:48.745Z,55.20
2018-02-08T06:51:15.187Z,59.90
2018-02-08T06:53:41.611Z,64.90
2018-02-08T06:56:08.019Z,59.50
2018-02-08T06:58:34.410Z,63.47
2018-02-08T07:01:00.886Z,51.00
2018-02-08T07:03:27.306Z,66.70
2018-02-08T07:05:53.688Z,55.23
2018-02-08T07:08:20.176Z,57.87
2018-02-08T07:10:46.604Z,56.70
2018-02-08T07:13:13.772Z,59.90
2018-02-08T07:15:41.031Z,62.53
2018-02-08T07:18:07.419Z,72.60
2018-02-08T07:20:33.807Z,62.10
2018-02-08T07:23:00.370Z,57.93
2018-02-08T07:25:26.780Z,57.30
2018-02-08T07:27:53.970Z,55.03
2018-02-08T07:30:21.138Z,66.77
2018-02-08T07:32:48.286Z,55.97
2018-02-08T07:35:15.612Z,60.37
2018-02-08T07:37:43.543Z,58.93
2018-02-08T07:40:09.960Z,55.73
2018-02-08T07:42:36.375Z,55.30
2018-02-08T07:45:02.883Z,60.70
2018-02-08T07:47:29.513Z,53.70
2018-02-08T07:49:55.911Z,53.37
2018-02-08T07:52:22.481Z,52.03
2018-02-08T07:54:48.905Z,63.40
2018-02-08T07:57:15.302Z,52.07
2018-02-08T07:59:41.740Z,56.83
2018-02-08T08:02:08.160Z,54.93
2018-02-08T08:04:34.554Z,50.73
2018-02-08T08:07:01.065Z,50.23
2018-02-08T08:09:27.807Z,51.73
2018-02-08T08:11:54.209Z,61.67
2018-02-08T08:14:20.630Z,56.23
2018-02-08T08:16:47.030Z,58.93
2018-02-08T08:19:13.460Z,60.63
2018-02-08T08:21:39.880Z,56.13
2018-02-08T08:24:06.298Z,55.27
2018-02-08T08:26:32.738Z,47.73
2018-02-08T08:28:59.216Z,52.37
2018-02-08T08:31:26.417Z,60.97
2018-02-08T08:33:52.833Z,55.23
2018-02-08T08:36:19.263Z,52.80
2018-02-08T08:38:45.708Z,55.60
2018-02-08T08:41:12.135Z,50.70
2018-02-08T08:43:38.582Z,55.17
2018-02-08T08:46:05.035Z,52.27
2018-02-08T08:48:31.582Z,55.00
2018-02-08T08:50:58.800Z,59.07
2018-02-08T08:53:26.702Z,57.20
2018-02-08T08:55:53.852Z,54.13
2018-02-08T08:58:21.034Z,54.50
2018-02-08T09:00:47.435Z,57.63
2018-02-08T09:03:14.577Z,64.10
2018-02-08T09:05:41.019Z,55.20
2018-02-08T09:08:08.165Z,61.17
2018-02-08T09:10:35.399Z,63.70
2018-02-08T09:13:01.807Z,54.20
2018-02-08T09:15:28.249Z,62.50
2018-02-08T09:17:54.666Z,61.80
2018-02-08T09:20:21.139Z,54.50
2018-02-08T09:22:47.606Z,68.87
2018-02-08T09:25:14.018Z,63.50
2018-02-08T09:27:41.194Z,61.60
2018-02-08T09:30:07.611Z,61.30
2018-02-08T09:32:34.809Z,62.43
2018-02-08T09:35:01.269Z,57.60
2018-02-08T09:37:27.659Z,65.57
2018-02-08T09:39:54.060Z,65.27
2018-02-08T09:42:20.538Z,65.67
2018-02-08T09:44:47.080Z,65.03
2018-02-08T09:47:13.550Z,62.27
2018-02-08T09:49:39.987Z,65.47
2018-02-08T09:52:07.216Z,65.20
2018-02-08T09:54:33.704Z,63.23
2018-02-08T09:57:00.130Z,66.33
2018-02-08T09:59:26.539Z,61.27
2018-02-08T10:01:53.851Z,61.20
2018-02-08T10:04:20.315Z,67.93
2018-02-08T10:06:47.641Z,85.13
2018-02-08T10:09:14.042Z,62.60
2018-02-08T10:11:40.474Z,60.70
2018-02-08T10:14:06.888Z,62.30
2018-02-08T10:16:33.278Z,66.57
2018-02-08T10:18:59.823Z,60.80
2018-02-08T10:21:26.241Z,73.73
2018-02-08T10:23:52.643Z,62.03
2018-02-08T10:26:19.103Z,66.13
2018-02-08T10:28:45.500Z,61.17
2018-02-08T10:31:12.619Z,67.30
2018-02-08T10:33:39.090Z,65.17
2018-02-08T10:36:05.487Z,67.40
2018-02-08T10:38:31.923Z,61.90
2018-02-08T10:40:59.082Z,73.90
2018-02-08T10:43:26.380Z,69.23
2018-02-08T10:45:52.805Z,68.57
2018-02-08T10:48:19.231Z,66.53
2018-02-08T10:50:45.705Z,59.20
2018-02-08T10:53:12.136Z,68.17
2018-02-08T10:55:38.598Z,68.83
2018-02-08T10:58:05.189Z,68.73
2018-02-08T11:00:31.639Z,60.83
2018-02-08T11:02:59.546Z,65.90
2018-02-08T11:05:26.008Z,67.53
2018-02-08T11:07:52.448Z,67.37
2018-02-08T11:10:18.884Z,73.80
2018-02-08T11:12:45.416Z,61.63
2018-02-08T11:15:11.891Z,71.23
2018-02-08T11:17:39.065Z,67.33
2018-02-08T11:20:05.535Z,65.50
2018-02-08T11:22:32.097Z,69.00
2018-02-08T11:24:59.347Z,66.00
2018-02-08T11:27:25.961Z,68.57
2018-02-08T11:29:53.141Z,78.30
2018-02-08T11:32:19.671Z,75.20
2018-02-08T11:34:46.060Z,71.63
2018-02-08T11:37:12.468Z,66.20
2018-02-08T11:39:39.658Z,71.17
2018-02-08T11:42:06.073Z,71.90
2018-02-08T11:44:32.491Z,71.00
2018-02-08T11:46:58.951Z,62.10
2018-02-08T11:49:25.341Z,74.23
2018-02-08T11:51:51.788Z,73.60
2018-02-08T11:54:18.950Z,69.77
2018-02-08T11:56:45.434Z,74.27
2018-02-08T11:59:12.599Z,61.90
2018-02-08T12:01:39.118Z,71.60
2018-02-08T12:04:05.565Z,69.90
2018-02-08T12:06:31.963Z,77.17
2018-02-08T12:08:58.469Z,72.73
2018-02-08T12:11:24.895Z,76.87
2018-02-08T12:13:51.333Z,70.23
2018-02-08T12:16:17.923Z,75.27
2018-02-08T12:18:45.089Z,74.67
2018-02-08T12:21:12.526Z,66.60
2018-02-08T12:23:39.000Z,71.97
2018-02-08T12:26:06.116Z,71.43
2018-02-08T12:28:33.274Z,68.17
2018-02-08T12:30:59.688Z,88.17
2018-02-08T12:33:26.861Z,66.37
2018-02-08T12:35:54.048Z,66.90
2018-02-08T12:38:20.491Z,76.33
2018-02-08T12:40:47.062Z,77.90
2018-02-08T12:43:13.493Z,69.97
2018-02-08T12:45:39.982Z,73.60
2018-02-08T12:48:06.567Z,83.17
2018-02-08T12:50:33.021Z,78.30
2018-02-08T12:53:00.352Z,76.90
2018-02-08T12:55:26.762Z,74.30
2018-02-08T12:57:53.312Z,74.70
2018-02-08T13:00:19.802Z,73.50
2018-02-08T13:02:46.377Z,74.90
2018-02-08T13:05:13.543Z,65.27
2018-02-08T13:07:39.969Z,71.43
2018-02-08T13:10:06.444Z,68.23
2018-02-08T13:12:32.890Z,74.50
2018-02-08T13:14:59.329Z,71.67
2018-02-08T13:17:25.739Z,71.70
2018-02-08T13:19:52.906Z,69.60
2018-02-08T13:22:19.358Z,77.43
2018-02-08T13:24:45.744Z,77.60
2018-02-08T13:27:12.896Z,63.87
2018-02-08T13:29:39.325Z,70.23
2018-02-08T13:32:06.582Z,72.20
2018-02-08T13:34:33.754Z,71.53
2018-02-08T13:37:00.257Z,74.87
2018-02-08T13:39:30.232Z,74.20
2018-02-08T13:41:56.694Z,87.10
2018-02-08T13:44:23.225Z,79.27
2018-02-08T13:46:52.603Z,73.80
2018-02-08T13:49:22.058Z,74.80
2018-02-08T13:55:01.664Z,73.25
2018-02-08T13:57:33.195Z,74.70
2018-02-08T14:03:12.869Z,78.17
2018-02-08T14:05:39.281Z,73.50
2018-02-08T14:08:05.882Z,72.50
2018-02-08T14:10:32.335Z,80.57
2018-02-08T14:12:59.664Z,77.73
2018-02-08T14:15:26.204Z,77.77
2018-02-08T14:17:52.639Z,73.97
2018-02-08T14:20:19.214Z,72.07
2018-02-08T14:22:45.663Z,73.20
2018-02-08T14:25:12.142Z,81.40
2018-02-08T14:27:39.307Z,75.63
2018-02-08T14:30:06.514Z,71.30
2018-02-08T14:32:33.022Z,79.60
2018-02-08T14:34:59.535Z,79.70
2018-02-08T14:37:26.224Z,86.33
2018-02-08T14:39:52.853Z,82.73
2018-02-08T14:42:19.284Z,80.43
2018-02-08T14:44:45.702Z,87.37
2018-02-08T14:47:12.264Z,83.37
2018-02-08T14:49:38.728Z,86.30
2018-02-08T14:52:05.125Z,84.57
2018-02-08T14:54:31.536Z,76.17
2018-02-08T14:56:57.999Z,89.50
2018-02-08T14:59:24.445Z,92.37
2018-02-08T15:01:50.879Z,90.33
2018-02-08T15:04:17.297Z,81.37
2018-02-08T15:06:43.710Z,82.47
2018-02-08T15:09:10.182Z,78.37
2018-02-08T15:11:37.474Z,75.43
2018-02-08T15:14:04.048Z,85.00
2018-02-08T15:16:30.503Z,87.00
2018-02-08T15:18:56.917Z,82.40
2018-02-08T15:21:23.321Z,87.67
2018-02-08T15:23:49.819Z,98.53
2018-02-08T15:26:16.993Z,77.80
2018-02-08T15:28:44.209Z,86.70
2018-02-08T15:31:10.986Z,88.70
2018-02-08T15:33:38.130Z,80.40
2018-02-08T15:36:04.584Z,74.30
2018-02-08T15:38:31.044Z,87.10
2018-02-08T15:40:57.490Z,97.87
2018-02-08T15:43:24.738Z,83.77
2018-02-08T15:45:51.945Z,85.87
2018-02-08T15:48:18.384Z,83.27
2018-02-08T15:50:44.791Z,87.17
2018-02-08T15:53:11.985Z,85.43
2018-02-08T15:55:38.411Z,84.13
2018-02-08T15:58:04.961Z,88.70
2018-02-08T16:00:31.403Z,89.30
2018-02-08T16:02:57.822Z,87.13
2018-02-08T16:05:24.248Z,82.87
2018-02-08T16:07:50.694Z,86.03
2018-02-08T16:10:17.194Z,82.73
2018-02-08T16:12:43.787Z,88.90
2018-02-08T16:15:10.425Z,91.63
2018-02-08T16:17:37.155Z,98.67
2018-02-08T16:20:03.802Z,91.93
2018-02-08T16:22:30.437Z,84.93
2018-02-08T16:24:56.865Z,74.37
2018-02-08T16:27:24.333Z,81.73
2018-02-08T16:29:51.601Z,93.60
2018-02-08T16:32:18.826Z,77.27
2018-02-08T16:34:45.251Z,91.83
2018-02-08T16:37:12.486Z,88.40
2018-02-08T16:39:38.986Z,79.73
2018-02-08T16:42:05.622Z,89.43
2018-02-08T16:44:32.259Z,79.23
2018-02-08T16:46:58.813Z,85.07
2018-02-08T16:49:25.356Z,91.63
2018-02-08T16:51:51.939Z,92.23
2018-02-08T16:54:19.111Z,88.23
2018-02-08T16:56:45.588Z,108.28
2018-02-08T16:59:12.825Z,89.03
2018-02-08T17:01:39.394Z,88.80
2018-02-08T17:04:05.898Z,99.80
2018-02-08T17:06:32.450Z,91.27
2018-02-08T17:08:58.892Z,94.10
2018-02-08T17:11:25.348Z,87.70
2018-02-08T17:13:51.810Z,80.63
2018-02-08T17:16:19.042Z,88.67
2018-02-08T17:18:45.565Z,90.27
2018-02-08T17:21:12.043Z,100.10
2018-02-08T17:23:38.639Z,88.70
2018-02-08T17:26:05.811Z,84.77
2018-02-08T17:28:32.328Z,90.73
2018-02-08T17:30:59.574Z,87.50
2018-02-08T17:33:25.982Z,90.47
2018-02-08T17:35:52.415Z,82.50
2018-02-08T17:38:18.846Z,89.67
2018-02-08T17:40:45.409Z,91.90
2018-02-08T17:43:12.667Z,89.53
2018-02-08T17:45:39.913Z,89.70
2018-02-08T17:48:06.377Z,88.47
2018-02-08T17:50:32.887Z,96.30
2018-02-08T17:52:59.315Z,94.53
2018-02-08T17:55:25.710Z,94.67
2018-02-08T17:57:52.204Z,102.10
2018-02-08T18:00:18.642Z,87.40
2018-02-08T18:02:45.168Z,89.50
2018-02-08T18:05:12.383Z,93.63
2018-02-08T18:07:38.785Z,92.47
2018-02-08T18:10:05.207Z,82.43
2018-02-08T18:12:31.861Z,89.53
2018-02-08T18:14:58.279Z,77.23
2018-02-08T18:17:24.797Z,84.67
2018-02-08T18:19:51.295Z,100.47
2018-02-08T18:22:18.480Z,84.93
2018-02-08T18:24:45.642Z,80.23
2018-02-08T18:27:12.241Z,90.33
2018-02-08T18:29:39.493Z,87.60
2018-02-08T18:32:06.721Z,105.10
2018-02-08T18:34:33.298Z,92.77
2018-02-08T18:36:59.715Z,91.17
2018-02-08T18:39:26.115Z,108.00
2018-02-08T18:41:52.583Z,89.47
2018-02-08T18:44:18.994Z,96.77
2018-02-08T18:46:45.433Z,95.87
2018-02-08T18:49:11.842Z,99.17
2018-02-08T18:51:38.295Z,114.10
2018-02-08T18:54:04.756Z,86.87
2018-02-08T18:56:31.955Z,98.40
2018-02-08T18:58:58.377Z,104.97
2018-02-08T19:01:24.792Z,89.87
2018-02-08T19:03:51.971Z,106.20
2018-02-08T19:06:18.431Z,107.47
2018-02-08T19:08:44.849Z,102.57
2018-02-08T19:11:11.314Z,94.70
2018-02-08T19:13:37.735Z,110.13
2018-02-08T19:16:04.153Z,98.20
2018-02-08T19:18:30.602Z,104.73
2018-02-08T19:20:57.030Z,105.67
2018-02-08T19:23:23.452Z,96.13
2018-02-08T19:25:50.023Z,98.27
2018-02-08T19:28:16.435Z,100.93
2018-02-08T19:30:42.979Z,104.20
2018-02-08T19:33:09.431Z,92.50
2018-02-08T19:35:36.753Z,92.97
2018-02-08T19:38:04.675Z,101.03
2018-02-08T19:40:31.119Z,102.50
2018-02-08T19:42:57.688Z,108.63
2018-02-08T19:45:24.956Z,106.57
2018-02-08T19:47:52.402Z,109.07
2018-02-08T19:50:19.588Z,110.73
2018-02-08T19:52:46.052Z,101.47
2018-02-08T19:55:12.508Z,106.37
2018-02-08T19:57:38.955Z,104.63
2018-02-08T20:00:05.383Z,92.40
2018-02-08T20:02:31.823Z,101.73
2018-02-08T20:04:58.231Z,99.83
2018-02-08T20:07:24.901Z,118.83
2018-02-08T20:09:51.747Z,101.20
2018-02-08T20:12:18.298Z,92.33
2018-02-08T20:14:56.596Z,86.50
2018-02-08T20:17:23.164Z,101.20
2018-02-08T20:19:49.767Z,97.03
2018-02-08T20:22:17.203Z,99.13
2018-02-08T20:24:44.559Z,96.13
2018-02-08T20:27:11.103Z,104.30
2018-02-08T20:29:37.585Z,99.00
2018-02-08T20:32:04.044Z,96.23
2018-02-08T20:34:30.724Z,100.50
2018-02-08T20:37:01.039Z,107.60
2018-02-08T20:39:28.404Z,102.17
2018-02-08T20:41:55.030Z,98.37
2018-02-08T20:44:22.323Z,96.50
2018-02-08T20:46:49.559Z,97.03
2018-02-08T20:49:16.996Z,102.60
2018-02-08T20:51:43.616Z,88.33
2018-02-08T20:54:10.050Z,91.13
2018-02-08T20:56:36.602Z,100.17
2018-02-08T20:59:03.862Z,105.80
2018-02-08T21:01:40.418Z,98.00
2018-02-08T21:04:06.977Z,102.73
2018-02-08T21:06:33.511Z,105.80
2018-02-08T21:09:00.045Z,90.80
2018-02-08T21:11:27.257Z,111.03
2018-02-08T21:13:53.771Z,102.93
2018-02-08T21:16:20.302Z,89.50
2018-02-08T21:18:47.652Z,109.57
2018-02-08T21:21:14.127Z,95.07
2018-02-08T21:23:40.592Z,113.73
2018-02-08T21:26:07.096Z,110.67
2018-02-08T21:28:33.519Z,104.97
2018-02-08T21:31:00.037Z,110.30
2018-02-08T21:33:26.610Z,98.20
2018-02-08T21:35:53.802Z,101.90
2018-02-08T21:38:20.238Z,99.37
2018-02-08T21:40:46.832Z,99.80
2018-02-08T21:43:13.684Z,102.40
2018-02-08T21:45:41.148Z,92.90
2018-02-08T21:48:08.020Z,90.67
2018-02-08T21:50:34.544Z,96.80
2018-02-08T21:53:01.020Z,91.53
2018-02-08T21:55:28.394Z,103.00
2018-02-08T21:57:55.657Z,110.47
2018-02-08T22:00:22.119Z,97.80
2018-02-08T22:02:48.621Z,104.10
2018-02-08T22:05:15.079Z,97.50
2018-02-08T22:07:41.575Z,91.23
2018-02-08T22:10:08.326Z,104.40
2018-02-08T22:12:35.684Z,94.97
2018-02-08T22:15:02.888Z,98.07
2018-02-08T22:17:29.380Z,87.13
2018-02-08T22:19:56.664Z,103.83
2018-02-08T22:22:23.334Z,89.73
2018-02-08T22:24:50.635Z,84.13
2018-02-08T22:27:17.216Z,88.33
2018-02-08T22:29:44.474Z,89.43
2018-02-08T22:32:11.053Z,93.30
2018-02-08T22:34:37.790Z,91.23
2018-02-08T22:37:04.513Z,102.40
2018-02-08T22:39:31.917Z,96.43
2018-02-08T22:41:58.726Z,98.87
2018-02-08T22:44:25.328Z,93.53
2018-02-08T22:46:51.826Z,99.43
2018-02-08T22:49:18.372Z,89.87
2018-02-08T22:51:44.903Z,98.67
2018-02-08T22:54:11.578Z,97.30
2018-02-08T22:56:38.971Z,100.33
2018-02-08T22:59:05.568Z,96.47
2018-02-08T23:01:32.347Z,109.40
2018-02-08T23:03:59.123Z,110.00
2018-02-08T23:06:26.205Z,97.47
2018-02-08T23:08:53.165Z,91.83
2018-02-08T23:11:19.781Z,102.07
2018-02-08T23:13:47.959Z,109.83
2018-02-08T23:16:14.511Z,99.53
2018-02-08T23:18:41.244Z,115.87
2018-02-08T23:21:08.588Z,108.77
2018-02-08T23:23:36.874Z,113.40
2018-02-08T23:26:03.833Z,109.67
2018-02-08T23:28:30.716Z,102.97
2018-02-08T23:30:57.215Z,102.27
2018-02-08T23:33:23.631Z,103.00
2018-02-08T23:35:50.169Z,97.77
2018-02-08T23:38:16.843Z,97.70
2018-02-08T23:40:43.345Z,105.37
2018-02-08T23:43:09.750Z,99.23
2018-02-08T23:45:36.204Z,96.00
2018-02-08T23:48:02.746Z,94.57
2018-02-08T23:50:29.948Z,102.73
2018-02-08T23:52:56.402Z,93.40
2018-02-08T23:55:22.827Z,94.87
2018-02-08T23:57:49.298Z,96.03
